createdAt,value
2022-09-09T00:01:34.271Z,18.98
2022-09-09T00:04:06.685Z,20.85
2022-09-09T00:06:38.500Z,17.60
2022-09-09T00:09:13.903Z,21.00
2022-09-09T00:12:11.824Z,21.08
2022-09-09T00:15:06.944Z,19.95
2022-09-09T00:18:06.639Z,21.30
2022-09-09T00:20:42.464Z,26.67
2022-09-09T00:23:31.938Z,24.27
2022-09-09T00:26:31.965Z,18.85
2022-09-09T00:29:10.730Z,18.90
2022-09-09T00:31:38.216Z,22.67
2022-09-09T00:34:17.371Z,19.30
2022-09-09T00:36:46.856Z,23.40
2022-09-09T00:39:42.727Z,19.85
2022-09-09T00:42:33.817Z,21.05
2022-09-09T00:47:46.676Z,22.75
2022-09-09T00:50:13.044Z,23.63
2022-09-09T00:53:03.640Z,23.60
2022-09-09T00:55:33.367Z,23.75
2022-09-09T00:57:59.799Z,23.15
2022-09-09T01:00:43.604Z,24.63
2022-09-09T01:03:18.658Z,23.90
2022-09-09T01:05:54.027Z,22.42
2022-09-09T01:08:37.361Z,25.58
2022-09-09T01:11:04.458Z,28.05
2022-09-09T01:13:36.493Z,26.98
2022-09-09T01:16:06.162Z,24.92
2022-09-09T01:18:41.692Z,35.03
2022-09-09T01:21:21.844Z,25.95
2022-09-09T01:24:16.734Z,24.65
2022-09-09T01:26:44.952Z,25.45
2022-09-09T01:29:15.425Z,24.98
2022-09-09T01:31:59.943Z,29.02
2022-09-09T01:34:32.712Z,26.30
2022-09-09T01:37:07.545Z,22.85
2022-09-09T01:39:36.737Z,28.17
2022-09-09T01:42:06.077Z,25.45
2022-09-09T01:44:33.002Z,28.63
2022-09-09T01:46:59.773Z,26.67
2022-09-09T01:49:26.170Z,26.98
2022-09-09T01:51:55.968Z,24.48
2022-09-09T01:54:25.241Z,28.70
2022-09-09T01:57:11.470Z,26.27
2022-09-09T02:00:14.281Z,28.23
2022-09-09T02:03:06.487Z,28.85
2022-09-09T02:05:56.762Z,32.28
2022-09-09T02:08:48.060Z,28.05
2022-09-09T02:11:20.269Z,29.65
2022-09-09T02:13:49.401Z,28.60
2022-09-09T02:16:27.453Z,29.85
2022-09-09T02:19:02.517Z,27.48
2022-09-09T02:21:31.424Z,29.15
2022-09-09T02:24:00.440Z,28.73
2022-09-09T02:26:27.696Z,28.52
2022-09-09T02:28:58.570Z,29.52
2022-09-09T02:33:56.412Z,25.88
2022-09-09T02:36:26.788Z,24.83
2022-09-09T02:38:54.872Z,28.58
2022-09-09T02:41:26.932Z,30.08
2022-09-09T02:43:53.323Z,25.30
2022-09-09T02:46:37.969Z,33.20
2022-09-09T02:49:11.269Z,26.65
2022-09-09T02:51:40.669Z,27.33
2022-09-09T02:54:15.204Z,32.05
2022-09-09T02:56:51.430Z,33.03
2022-09-09T02:59:19.057Z,28.25
2022-09-09T03:01:45.992Z,31.20
2022-09-09T03:04:12.466Z,30.20
2022-09-09T03:06:38.869Z,27.92
2022-09-09T03:09:05.620Z,28.33
2022-09-09T03:11:32.192Z,30.48
2022-09-09T03:13:58.703Z,29.73
2022-09-09T03:16:25.413Z,29.92
2022-09-09T03:18:51.893Z,29.77
2022-09-09T03:21:18.625Z,30.08
2022-09-09T03:23:45.936Z,26.45
2022-09-09T03:26:12.714Z,26.88
2022-09-09T03:28:39.108Z,26.45
2022-09-09T03:31:06.537Z,26.02
2022-09-09T03:33:32.960Z,27.15
2022-09-09T03:35:59.347Z,31.50
2022-09-09T03:38:26.322Z,28.75
2022-09-09T03:40:58.145Z,31.48
2022-09-09T03:43:26.601Z,31.45
2022-09-09T03:45:54.132Z,28.45
2022-09-09T03:48:20.597Z,31.98
2022-09-09T03:50:48.644Z,37.75
2022-09-09T03:53:16.149Z,28.80
2022-09-09T03:55:50.909Z,25.27
2022-09-09T03:58:19.565Z,26.90
2022-09-09T04:01:09.950Z,30.38
2022-09-09T04:03:36.470Z,26.90
2022-09-09T04:06:05.139Z,27.92
2022-09-09T04:08:34.722Z,24.15
2022-09-09T04:11:02.688Z,28.70
2022-09-09T04:13:29.509Z,26.35
2022-09-09T04:15:58.824Z,24.63
2022-09-09T04:18:26.943Z,25.48
2022-09-09T04:20:54.124Z,28.45
2022-09-09T04:23:21.535Z,27.95
2022-09-09T04:25:53.463Z,26.00
2022-09-09T04:28:23.166Z,27.10
2022-09-09T04:30:49.569Z,26.25
2022-09-09T04:33:16.216Z,25.15
2022-09-09T04:35:51.100Z,26.38
2022-09-09T04:38:18.503Z,30.13
2022-09-09T04:40:48.325Z,28.40
2022-09-09T04:43:15.703Z,37.50
2022-09-09T04:45:48.221Z,30.65
2022-09-09T04:48:15.027Z,27.38
2022-09-09T04:50:41.577Z,27.00
2022-09-09T04:53:08.492Z,36.20
2022-09-09T04:55:35.969Z,25.95
2022-09-09T04:58:06.780Z,27.85
2022-09-09T05:00:34.818Z,37.83
2022-09-09T05:03:05.036Z,28.45
2022-09-09T05:05:31.581Z,31.75
2022-09-09T05:08:09.480Z,24.17
2022-09-09T05:10:38.836Z,26.27
2022-09-09T05:13:06.079Z,23.90
2022-09-09T05:15:32.478Z,24.40
2022-09-09T05:18:01.489Z,28.15
2022-09-09T05:20:28.373Z,34.42
2022-09-09T05:22:55.941Z,24.27
2022-09-09T05:25:23.163Z,30.95
2022-09-09T05:27:50.498Z,29.52
2022-09-09T05:30:17.626Z,34.00
2022-09-09T05:32:44.345Z,27.25
2022-09-09T05:35:10.967Z,26.42
2022-09-09T05:37:37.422Z,31.40
2022-09-09T05:40:04.260Z,25.52
2022-09-09T05:42:32.096Z,30.98
2022-09-09T05:44:59.097Z,33.80
2022-09-09T05:47:25.725Z,40.58
2022-09-09T05:49:52.509Z,25.10
2022-09-09T05:52:18.902Z,27.25
2022-09-09T05:54:45.272Z,27.08
2022-09-09T05:57:11.679Z,27.75
2022-09-09T05:59:39.232Z,27.15
2022-09-09T06:02:05.768Z,31.92
2022-09-09T06:04:32.278Z,32.75
2022-09-09T06:06:58.665Z,31.27
2022-09-09T06:09:25.112Z,24.85
2022-09-09T06:11:51.604Z,36.97
2022-09-09T06:14:19.005Z,25.95
2022-09-09T06:16:46.172Z,25.55
2022-09-09T06:19:13.728Z,25.25
2022-09-09T06:21:41.104Z,24.23
2022-09-09T06:24:08.501Z,23.42
2022-09-09T06:26:37.634Z,28.08
2022-09-09T06:29:05.321Z,26.10
2022-09-09T06:31:35.160Z,22.98
2022-09-09T06:34:02.074Z,28.75
2022-09-09T06:36:31.947Z,26.55
2022-09-09T06:38:58.880Z,23.17
2022-09-09T06:41:27.764Z,21.65
2022-09-09T06:43:54.304Z,22.70
2022-09-09T06:46:32.501Z,18.50
2022-09-09T06:49:00.778Z,28.75
2022-09-09T06:51:32.433Z,25.17
2022-09-09T06:54:03.116Z,23.52
2022-09-09T06:56:34.014Z,20.55
2022-09-09T06:59:04.731Z,24.17
2022-09-09T07:01:34.549Z,22.05
2022-09-09T07:04:01.893Z,24.63
2022-09-09T07:06:31.119Z,22.65
2022-09-09T07:09:05.886Z,21.58
2022-09-09T07:11:35.112Z,26.10
2022-09-09T07:14:02.152Z,23.85
2022-09-09T07:16:30.502Z,23.25
2022-09-09T07:18:58.757Z,21.30
2022-09-09T07:21:27.467Z,20.13
2022-09-09T07:23:55.418Z,23.40
2022-09-09T07:26:26.332Z,30.77
2022-09-09T07:28:53.161Z,15.18
2022-09-09T07:31:28.828Z,9.88
2022-09-09T07:33:55.281Z,7.30
2022-09-09T07:36:24.570Z,4.30
2022-09-09T07:38:57.189Z,4.13
2022-09-09T07:41:32.216Z,3.63
2022-09-09T07:43:59.275Z,5.13
2022-09-09T07:46:27.354Z,5.45
2022-09-09T07:48:56.637Z,3.00
2022-09-09T07:51:26.672Z,3.58
2022-09-09T07:54:00.974Z,3.53
2022-09-09T07:56:28.986Z,6.32
2022-09-09T07:58:57.203Z,3.67
2022-09-09T08:01:30.885Z,4.65
2022-09-09T08:04:03.903Z,3.95
2022-09-09T08:06:38.433Z,3.20
2022-09-09T08:09:05.896Z,3.90
2022-09-09T08:11:38.671Z,2.67
2022-09-09T08:14:07.103Z,3.70
2022-09-09T08:16:37.364Z,5.43
2022-09-09T08:19:04.588Z,1.50
2022-09-09T08:21:34.088Z,2.55
2022-09-09T08:24:02.615Z,1.67
2022-09-09T08:26:42.426Z,3.55
2022-09-09T08:29:11.112Z,1.98
2022-09-09T08:31:52.191Z,4.85
2022-09-09T08:34:20.927Z,3.33
2022-09-09T08:36:48.950Z,4.75
2022-09-09T08:39:17.267Z,1.40
2022-09-09T08:42:17.155Z,2.67
2022-09-09T08:44:55.750Z,4.75
2022-09-09T08:47:59.736Z,3.40
2022-09-09T08:50:36.354Z,2.53
2022-09-09T08:53:10.341Z,2.10
2022-09-09T08:55:45.701Z,2.13
2022-09-09T08:58:33.989Z,3.05
2022-09-09T09:01:36.151Z,4.45
2022-09-09T09:04:21.072Z,3.72
2022-09-09T09:07:13.293Z,3.60
2022-09-09T09:10:01.361Z,5.10
2022-09-09T09:12:33.907Z,2.97
2022-09-09T09:15:00.792Z,2.10
2022-09-09T09:17:32.281Z,3.13
2022-09-09T09:20:00.553Z,6.00
2022-09-09T09:22:33.876Z,3.35
2022-09-09T09:25:32.428Z,2.97
2022-09-09T09:28:18.346Z,2.25
2022-09-09T09:31:13.585Z,4.22
2022-09-09T09:33:53.734Z,3.15
2022-09-09T09:36:24.431Z,3.40
2022-09-09T09:41:48.703Z,2.28
2022-09-09T09:44:32.707Z,2.72
2022-09-09T09:47:22.831Z,3.08
2022-09-09T09:49:54.501Z,3.83
2022-09-09T09:52:24.900Z,1.92
2022-09-09T09:54:53.216Z,2.75
2022-09-09T09:57:32.754Z,2.55
2022-09-09T10:00:06.693Z,2.75
2022-09-09T10:02:39.869Z,7.53
2022-09-09T10:05:16.754Z,4.88
2022-09-09T10:07:53.889Z,5.90
2022-09-09T10:10:32.657Z,2.83
2022-09-09T10:13:24.939Z,2.58
2022-09-09T10:16:07.609Z,3.05
2022-09-09T10:19:02.435Z,2.28
2022-09-09T10:21:37.588Z,7.03
2022-09-09T10:24:30.675Z,2.60
2022-09-09T10:27:18.027Z,2.53
2022-09-09T10:30:25.182Z,4.70
2022-09-09T10:33:07.920Z,4.57
2022-09-09T10:35:47.801Z,2.47
2022-09-09T10:38:37.545Z,2.13
2022-09-09T10:41:26.860Z,3.17
2022-09-09T10:44:37.729Z,2.25
2022-09-09T10:47:29.843Z,3.72
2022-09-09T10:51:00.359Z,3.30
2022-09-09T10:53:39.913Z,4.97
2022-09-09T10:56:22.229Z,4.65
2022-09-09T10:58:59.294Z,3.90
2022-09-09T11:01:50.946Z,4.55
2022-09-09T11:04:31.918Z,4.97
2022-09-09T11:07:07.432Z,5.32
2022-09-09T11:09:50.937Z,4.43
2022-09-09T11:12:21.232Z,4.43
2022-09-09T11:14:56.018Z,4.00
2022-09-09T11:17:34.680Z,5.55
2022-09-09T11:20:01.653Z,7.78
2022-09-09T11:22:56.312Z,5.03
2022-09-09T11:25:35.842Z,6.60
2022-09-09T11:28:22.038Z,7.72
2022-09-09T11:30:57.165Z,6.18
2022-09-09T11:33:42.735Z,7.15
2022-09-09T11:36:37.132Z,4.22
2022-09-09T11:39:27.774Z,7.93
2022-09-09T11:44:30.997Z,4.88
2022-09-09T11:46:57.685Z,6.50
2022-09-09T11:49:44.548Z,7.03
2022-09-09T11:52:15.129Z,7.22
2022-09-09T11:57:31.973Z,6.85
2022-09-09T11:59:59.893Z,6.07
2022-09-09T12:02:33.542Z,12.98
2022-09-09T12:05:09.730Z,4.57
2022-09-09T12:07:47.480Z,7.18
2022-09-09T12:10:28.277Z,6.63
2022-09-09T12:12:54.742Z,7.10
2022-09-09T12:15:28.937Z,6.03
2022-09-09T12:18:02.988Z,7.18
2022-09-09T12:20:37.883Z,6.95
2022-09-09T12:23:07.127Z,3.63
2022-09-09T12:26:16.659Z,10.75
2022-09-09T12:28:51.832Z,5.45
2022-09-09T12:31:31.570Z,8.20
2022-09-09T12:34:26.382Z,8.73
2022-09-09T12:37:00.872Z,6.25
2022-09-09T12:39:34.397Z,7.15
2022-09-09T12:42:01.100Z,8.07
2022-09-09T12:44:30.933Z,5.90
2022-09-09T12:47:01.844Z,4.18
2022-09-09T12:49:39.537Z,3.05
2022-09-09T12:52:27.632Z,6.65
2022-09-09T12:54:54.786Z,4.30
2022-09-09T12:57:26.399Z,6.53
2022-09-09T12:59:54.206Z,3.53
2022-09-09T13:02:26.429Z,3.67
2022-09-09T13:04:56.123Z,3.35
2022-09-09T13:07:22.867Z,5.63
2022-09-09T13:09:50.313Z,3.85
2022-09-09T13:12:23.548Z,9.55
2022-09-09T13:14:53.832Z,4.30
2022-09-09T13:17:26.310Z,5.00
2022-09-09T13:19:53.914Z,7.93
2022-09-09T13:22:26.167Z,4.55
2022-09-09T13:25:18.448Z,4.95
2022-09-09T13:28:03.497Z,6.15
2022-09-09T13:30:41.121Z,6.18
2022-09-09T13:33:13.886Z,3.10
2022-09-09T13:35:58.368Z,5.88
2022-09-09T13:38:27.818Z,8.60
2022-09-09T13:41:05.286Z,7.73
2022-09-09T13:43:39.560Z,4.10
2022-09-09T13:46:29.369Z,4.55
2022-09-09T13:49:00.689Z,3.70
2022-09-09T13:51:51.606Z,3.47
2022-09-09T13:54:20.816Z,7.63
2022-09-09T13:56:48.163Z,7.72
2022-09-09T13:59:23.110Z,3.60
2022-09-09T14:01:53.352Z,7.80
2022-09-09T14:04:23.300Z,7.20
2022-09-09T14:06:51.248Z,7.20
2022-09-09T14:09:19.134Z,11.18
2022-09-09T14:11:47.064Z,5.38
2022-09-09T14:14:13.566Z,5.90
2022-09-09T14:16:39.985Z,6.53
2022-09-09T14:19:06.375Z,5.13
2022-09-09T14:21:33.569Z,12.38
2022-09-09T14:24:00.116Z,7.00
2022-09-09T14:26:27.228Z,5.05
2022-09-09T14:28:55.982Z,9.38
2022-09-09T14:31:23.905Z,5.03
2022-09-09T14:33:51.714Z,7.38
2022-09-09T14:36:18.215Z,5.10
2022-09-09T14:38:44.640Z,5.72
2022-09-09T14:41:18.812Z,4.68
2022-09-09T14:43:46.650Z,10.80
2022-09-09T14:46:15.476Z,3.47
2022-09-09T14:48:42.333Z,3.28
2022-09-09T14:51:20.395Z,3.67
2022-09-09T14:53:47.772Z,6.03
2022-09-09T14:56:16.901Z,5.95
2022-09-09T14:58:43.810Z,4.60
2022-09-09T15:01:12.587Z,3.85
2022-09-09T15:03:48.810Z,5.65
2022-09-09T15:06:15.882Z,6.32
2022-09-09T15:08:44.100Z,5.38
2022-09-09T15:11:13.041Z,8.63
2022-09-09T15:13:41.684Z,4.82
2022-09-09T15:16:10.810Z,7.57
2022-09-09T15:18:37.649Z,6.15
2022-09-09T15:21:05.867Z,5.20
2022-09-09T15:23:33.874Z,5.43
2022-09-09T15:26:00.306Z,4.55
2022-09-09T15:28:26.917Z,5.63
2022-09-09T15:30:54.746Z,8.85
2022-09-09T15:33:23.020Z,6.65
2022-09-09T15:35:50.780Z,7.07
2022-09-09T15:38:18.281Z,3.92
2022-09-09T15:40:44.819Z,5.65
2022-09-09T15:43:11.695Z,3.97
2022-09-09T15:45:38.460Z,7.35
2022-09-09T15:48:05.475Z,4.07
2022-09-09T15:50:33.331Z,5.35
2022-09-09T15:53:00.880Z,5.13
2022-09-09T15:55:27.336Z,5.85
2022-09-09T15:57:53.943Z,6.00
2022-09-09T16:00:20.965Z,4.53
2022-09-09T16:02:48.202Z,3.60
2022-09-09T16:05:14.786Z,11.32
2022-09-09T16:07:43.315Z,6.95
2022-09-09T16:10:11.701Z,5.75
2022-09-09T16:12:38.181Z,10.77
2022-09-09T16:15:04.834Z,5.50
2022-09-09T16:17:31.301Z,4.15
2022-09-09T16:19:58.569Z,7.13
2022-09-09T16:22:25.454Z,8.55
2022-09-09T16:24:51.870Z,5.53
2022-09-09T16:27:19.058Z,5.63
2022-09-09T16:29:46.239Z,6.18
2022-09-09T16:32:12.893Z,6.53
2022-09-09T16:34:39.303Z,4.75
2022-09-09T16:37:05.819Z,5.15
2022-09-09T16:39:32.370Z,9.10
2022-09-09T16:41:58.847Z,3.95
2022-09-09T16:44:27.027Z,8.05
2022-09-09T16:46:59.632Z,3.67
2022-09-09T16:49:28.495Z,4.13
2022-09-09T16:51:54.935Z,3.85
2022-09-09T16:54:22.862Z,3.28
2022-09-09T16:56:49.463Z,7.70
2022-09-09T16:59:20.667Z,6.07
2022-09-09T17:01:49.514Z,5.65
2022-09-09T17:04:21.359Z,6.22
2022-09-09T17:06:53.134Z,5.22
2022-09-09T17:09:20.771Z,8.27
2022-09-09T17:11:48.828Z,6.28
2022-09-09T17:14:18.139Z,7.18
2022-09-09T17:16:45.173Z,4.53
2022-09-09T17:19:12.841Z,5.40
2022-09-09T17:21:54.618Z,5.13
2022-09-09T17:24:27.444Z,7.93
2022-09-09T17:26:55.268Z,8.23
2022-09-09T17:29:22.184Z,7.18
2022-09-09T17:31:48.617Z,6.15
2022-09-09T17:34:15.251Z,5.57
2022-09-09T17:36:41.930Z,9.65
2022-09-09T17:39:09.078Z,8.70
2022-09-09T17:41:40.029Z,12.43
2022-09-09T17:46:41.920Z,6.95
2022-09-09T17:49:13.534Z,14.00
2022-09-09T17:51:42.270Z,9.48
2022-09-09T17:54:11.795Z,8.10
2022-09-09T17:56:39.081Z,13.30
2022-09-09T17:59:10.389Z,10.73
2022-09-09T18:01:39.528Z,8.65
2022-09-09T18:04:08.049Z,10.52
2022-09-09T18:06:37.149Z,8.55
2022-09-09T18:09:25.315Z,10.60
2022-09-09T18:11:54.677Z,25.95
2022-09-09T18:14:25.375Z,18.95
2022-09-09T18:16:52.435Z,18.20
2022-09-09T18:19:22.632Z,19.00
2022-09-09T18:21:50.040Z,18.02
2022-09-09T18:24:17.877Z,18.80
2022-09-09T18:26:45.529Z,15.98
2022-09-09T18:29:14.656Z,18.48
2022-09-09T18:31:42.460Z,24.05
2022-09-09T18:34:11.772Z,17.38
2022-09-09T18:36:45.309Z,13.27
2022-09-09T18:39:13.992Z,7.90
2022-09-09T18:41:43.233Z,14.07
2022-09-09T18:44:19.036Z,8.45
2022-09-09T18:46:45.469Z,9.70
2022-09-09T18:49:12.475Z,11.18
2022-09-09T18:51:41.164Z,10.20
2022-09-09T18:54:12.109Z,13.23
2022-09-09T18:56:39.099Z,11.02
2022-09-09T18:59:07.749Z,7.63
2022-09-09T19:01:37.687Z,10.98
2022-09-09T19:04:06.154Z,11.60
2022-09-09T19:06:34.791Z,12.13
2022-09-09T19:09:03.726Z,8.40
2022-09-09T19:11:33.535Z,11.45
2022-09-09T19:14:04.781Z,6.53
2022-09-09T19:16:34.321Z,10.32
2022-09-09T19:19:04.265Z,10.07
2022-09-09T19:21:33.641Z,13.67
2022-09-09T19:24:15.433Z,7.53
2022-09-09T19:26:45.655Z,8.68
2022-09-09T19:29:21.369Z,9.95
2022-09-09T19:32:14.986Z,12.00
2022-09-09T19:34:36.353Z,12.63
2022-09-09T19:37:02.769Z,10.52
2022-09-09T19:39:29.404Z,10.65
2022-09-09T19:41:55.880Z,10.63
2022-09-09T19:44:22.596Z,10.48
2022-09-09T19:46:49.938Z,8.95
2022-09-09T19:49:17.554Z,9.35
2022-09-09T19:51:44.035Z,11.00
2022-09-09T19:54:13.214Z,18.63
2022-09-09T19:56:41.184Z,15.68
2022-09-09T19:59:09.640Z,12.20
2022-09-09T20:01:40.326Z,19.70
2022-09-09T20:06:37.411Z,16.67
2022-09-09T20:09:05.962Z,13.75
2022-09-09T20:11:32.761Z,16.42
2022-09-09T20:13:59.306Z,12.98
2022-09-09T20:16:28.896Z,17.30
2022-09-09T20:18:57.511Z,15.80
2022-09-09T20:21:32.345Z,21.15
2022-09-09T20:24:04.573Z,24.70
2022-09-09T20:26:33.508Z,12.55
2022-09-09T20:29:00.843Z,12.85
2022-09-09T20:31:29.602Z,18.77
2022-09-09T20:33:56.871Z,15.18
2022-09-09T20:36:32.242Z,12.95
2022-09-09T20:39:01.478Z,11.70
2022-09-09T20:41:31.117Z,11.00
2022-09-09T20:44:01.477Z,10.70
2022-09-09T20:46:33.873Z,9.13
2022-09-09T20:49:03.067Z,9.88
2022-09-09T20:51:32.966Z,14.93
2022-09-09T20:54:13.824Z,10.10
2022-09-09T20:56:42.481Z,11.38
2022-09-09T20:59:12.264Z,10.10
2022-09-09T21:01:39.385Z,9.93
2022-09-09T21:04:06.796Z,11.40
2022-09-09T21:06:33.187Z,9.88
2022-09-09T21:08:59.673Z,11.02
2022-09-09T21:11:26.242Z,11.35
2022-09-09T21:13:52.718Z,8.93
2022-09-09T21:16:21.071Z,11.18
2022-09-09T21:18:49.296Z,9.80
2022-09-09T21:21:18.972Z,15.50
2022-09-09T21:23:45.400Z,9.80
2022-09-09T21:26:11.791Z,12.75
2022-09-09T21:28:38.426Z,11.40
2022-09-09T21:31:09.065Z,13.25
2022-09-09T21:33:35.473Z,9.80
2022-09-09T21:36:05.910Z,12.18
2022-09-09T21:38:32.955Z,10.23
2022-09-09T21:41:07.162Z,11.32
2022-09-09T21:43:34.004Z,10.57
2022-09-09T21:46:04.088Z,10.63
2022-09-09T21:48:31.535Z,14.32
2022-09-09T21:51:03.801Z,10.52
2022-09-09T21:53:31.326Z,10.88
2022-09-09T21:56:02.678Z,9.32
2022-09-09T21:58:30.155Z,10.10
2022-09-09T22:00:56.757Z,10.45
2022-09-09T22:03:23.600Z,7.45
2022-09-09T22:05:53.809Z,8.30
2022-09-09T22:08:21.197Z,10.30
2022-09-09T22:10:47.741Z,10.07
2022-09-09T22:13:17.875Z,8.20
2022-09-09T22:15:45.957Z,8.57
2022-09-09T22:18:14.063Z,7.78
2022-09-09T22:20:43.060Z,8.00
2022-09-09T22:23:10.278Z,7.13
2022-09-09T22:25:38.025Z,8.07
2022-09-09T22:28:06.890Z,7.57
2022-09-09T22:30:33.978Z,6.43
2022-09-09T22:33:01.191Z,8.85
2022-09-09T22:35:28.992Z,6.60
2022-09-09T22:37:55.866Z,7.53
2022-09-09T22:40:22.618Z,7.72
2022-09-09T22:42:52.583Z,7.70
2022-09-09T22:45:20.846Z,6.13
2022-09-09T22:47:47.641Z,8.77
2022-09-09T22:50:14.336Z,7.22
2022-09-09T22:52:40.753Z,6.15
2022-09-09T22:55:07.817Z,6.72
2022-09-09T22:57:34.234Z,7.68
2022-09-09T23:00:01.353Z,5.65
2022-09-09T23:02:28.994Z,8.77
2022-09-09T23:04:55.414Z,6.60
2022-09-09T23:07:23.362Z,7.68
2022-09-09T23:09:49.826Z,8.73
2022-09-09T23:12:18.808Z,7.75
2022-09-09T23:14:45.225Z,9.63
2022-09-09T23:17:14.554Z,19.45
2022-09-09T23:19:41.493Z,6.47
2022-09-09T23:22:07.884Z,6.47
2022-09-09T23:24:34.675Z,6.05
2022-09-09T23:27:01.104Z,7.82
2022-09-09T23:29:27.564Z,3.42
2022-09-09T23:31:53.935Z,5.40
2022-09-09T23:34:20.386Z,5.53
2022-09-09T23:36:47.109Z,5.22
2022-09-09T23:39:13.574Z,4.03
2022-09-09T23:41:40.256Z,2.88
2022-09-09T23:44:07.430Z,4.30
2022-09-09T23:46:35.131Z,3.33
2022-09-09T23:49:02.558Z,2.42
2022-09-09T23:51:30.503Z,3.72
2022-09-09T23:53:59.087Z,3.30
2022-09-09T23:56:37.701Z,3.58
2022-09-09T23:59:07.939Z,3.22
